sensor_id;sensor_type;location;lat;lon;timestamp;P1;durP1;ratioP1;P2;durP2;ratioP2
32611;SDS011;19030;49.478;8.986;2022-08-19T00:01:12;16.33;;;14.45;;
32611;SDS011;19030;49.478;8.986;2022-08-19T00:03:13;17.10;;;14.55;;
32611;SDS011;19030;49.478;8.986;2022-08-19T00:05:14;16.40;;;14.57;;
32611;SDS011;19030;49.478;8.986;2022-08-19T00:07:15;16.95;;;14.70;;
32611;SDS011;19030;49.478;8.986;2022-08-19T00:09:16;17.42;;;14.45;;
32611;SDS011;19030;49.478;8.986;2022-08-19T00:11:18;16.92;;;14.30;;
32611;SDS011;19030;49.478;8.986;2022-08-19T00:13:20;17.55;;;14.65;;
32611;SDS011;19030;49.478;8.986;2022-08-19T00:15:21;16.70;;;14.82;;
32611;SDS011;19030;49.478;8.986;2022-08-19T00:17:22;17.02;;;14.48;;
32611;SDS011;19030;49.478;8.986;2022-08-19T00:19:23;15.57;;;13.50;;
32611;SDS011;19030;49.478;8.986;2022-08-19T00:21:24;17.63;;;14.63;;
32611;SDS011;19030;49.478;8.986;2022-08-19T00:23:26;16.63;;;14.82;;
32611;SDS011;19030;49.478;8.986;2022-08-19T00:25:27;16.65;;;14.25;;
32611;SDS011;19030;49.478;8.986;2022-08-19T00:27:28;16.50;;;14.65;;
32611;SDS011;19030;49.478;8.986;2022-08-19T00:29:28;16.67;;;14.88;;
32611;SDS011;19030;49.478;8.986;2022-08-19T00:31:29;18.40;;;15.10;;
32611;SDS011;19030;49.478;8.986;2022-08-19T00:33:31;17.38;;;15.10;;
32611;SDS011;19030;49.478;8.986;2022-08-19T00:35:33;18.08;;;15.63;;
32611;SDS011;19030;49.478;8.986;2022-08-19T00:37:33;16.75;;;14.43;;
32611;SDS011;19030;49.478;8.986;2022-08-19T00:39:35;20.17;;;14.75;;
32611;SDS011;19030;49.478;8.986;2022-08-19T00:41:35;17.38;;;15.05;;
32611;SDS011;19030;49.478;8.986;2022-08-19T00:43:36;18.38;;;15.20;;
32611;SDS011;19030;49.478;8.986;2022-08-19T00:45:38;20.63;;;15.60;;
32611;SDS011;19030;49.478;8.986;2022-08-19T00:47:41;19.33;;;16.15;;
32611;SDS011;19030;49.478;8.986;2022-08-19T00:49:44;17.90;;;15.48;;
32611;SDS011;19030;49.478;8.986;2022-08-19T00:51:51;18.35;;;15.98;;
32611;SDS011;19030;49.478;8.986;2022-08-19T00:53:57;17.60;;;15.55;;
32611;SDS011;19030;49.478;8.986;2022-08-19T00:55:59;18.95;;;15.23;;
32611;SDS011;19030;49.478;8.986;2022-08-19T00:58:02;17.38;;;15.35;;
32611;SDS011;19030;49.478;8.986;2022-08-19T01:00:09;18.52;;;14.63;;
32611;SDS011;19030;49.478;8.986;2022-08-19T01:02:14;17.20;;;14.73;;
32611;SDS011;19030;49.478;8.986;2022-08-19T01:04:15;16.92;;;14.88;;
32611;SDS011;19030;49.478;8.986;2022-08-19T01:06:16;18.10;;;14.63;;
32611;SDS011;19030;49.478;8.986;2022-08-19T01:08:17;16.60;;;14.63;;
32611;SDS011;19030;49.478;8.986;2022-08-19T01:10:21;15.88;;;14.18;;
32611;SDS011;19030;49.478;8.986;2022-08-19T01:12:26;17.90;;;14.85;;
32611;SDS011;19030;49.478;8.986;2022-08-19T01:14:26;20.00;;;14.90;;
32611;SDS011;19030;49.478;8.986;2022-08-19T01:16:27;18.13;;;15.80;;
32611;SDS011;19030;49.478;8.986;2022-08-19T01:18:29;18.17;;;15.65;;
32611;SDS011;19030;49.478;8.986;2022-08-19T01:20:32;17.85;;;14.95;;
32611;SDS011;19030;49.478;8.986;2022-08-19T01:22:47;17.67;;;15.43;;
32611;SDS011;19030;49.478;8.986;2022-08-19T01:24:50;18.10;;;15.30;;
32611;SDS011;19030;49.478;8.986;2022-08-19T01:26:51;18.63;;;15.88;;
32611;SDS011;19030;49.478;8.986;2022-08-19T01:28:55;17.52;;;15.30;;
32611;SDS011;19030;49.478;8.986;2022-08-19T01:30:57;17.33;;;14.77;;
32611;SDS011;19030;49.478;8.986;2022-08-19T01:32:58;20.42;;;15.80;;
32611;SDS011;19030;49.478;8.986;2022-08-19T01:35:05;16.50;;;14.43;;
32611;SDS011;19030;49.478;8.986;2022-08-19T01:37:09;17.70;;;14.50;;
32611;SDS011;19030;49.478;8.986;2022-08-19T01:39:12;17.70;;;15.18;;
32611;SDS011;19030;49.478;8.986;2022-08-19T01:41:15;18.45;;;14.63;;
32611;SDS011;19030;49.478;8.986;2022-08-19T01:43:17;16.58;;;14.77;;
32611;SDS011;19030;49.478;8.986;2022-08-19T01:45:19;15.50;;;13.75;;
32611;SDS011;19030;49.478;8.986;2022-08-19T01:47:21;16.90;;;15.10;;
32611;SDS011;19030;49.478;8.986;2022-08-19T01:49:23;17.33;;;15.40;;
32611;SDS011;19030;49.478;8.986;2022-08-19T01:51:25;18.30;;;15.40;;
32611;SDS011;19030;49.478;8.986;2022-08-19T01:53:26;17.98;;;15.20;;
32611;SDS011;19030;49.478;8.986;2022-08-19T01:55:27;16.42;;;14.25;;
32611;SDS011;19030;49.478;8.986;2022-08-19T01:57:27;17.23;;;14.55;;
32611;SDS011;19030;49.478;8.986;2022-08-19T01:59:28;17.90;;;15.18;;
32611;SDS011;19030;49.478;8.986;2022-08-19T02:01:30;19.52;;;14.98;;
32611;SDS011;19030;49.478;8.986;2022-08-19T02:03:32;19.02;;;15.98;;
32611;SDS011;19030;49.478;8.986;2022-08-19T02:05:34;17.77;;;15.18;;
32611;SDS011;19030;49.478;8.986;2022-08-19T02:07:35;18.40;;;15.23;;
32611;SDS011;19030;49.478;8.986;2022-08-19T02:09:36;19.35;;;15.43;;
32611;SDS011;19030;49.478;8.986;2022-08-19T02:11:37;20.05;;;16.23;;
32611;SDS011;19030;49.478;8.986;2022-08-19T02:13:38;18.50;;;15.20;;
32611;SDS011;19030;49.478;8.986;2022-08-19T02:15:39;18.45;;;15.50;;
32611;SDS011;19030;49.478;8.986;2022-08-19T02:17:40;17.35;;;14.93;;
32611;SDS011;19030;49.478;8.986;2022-08-19T02:19:40;19.30;;;15.68;;
32611;SDS011;19030;49.478;8.986;2022-08-19T02:21:41;18.23;;;15.55;;
32611;SDS011;19030;49.478;8.986;2022-08-19T02:23:43;18.33;;;15.30;;
32611;SDS011;19030;49.478;8.986;2022-08-19T02:25:48;17.35;;;14.93;;
32611;SDS011;19030;49.478;8.986;2022-08-19T02:27:48;20.08;;;15.43;;
32611;SDS011;19030;49.478;8.986;2022-08-19T02:29:49;15.93;;;14.18;;
32611;SDS011;19030;49.478;8.986;2022-08-19T02:31:51;17.73;;;14.60;;
32611;SDS011;19030;49.478;8.986;2022-08-19T02:33:52;17.92;;;15.75;;
32611;SDS011;19030;49.478;8.986;2022-08-19T02:35:53;18.88;;;16.25;;
32611;SDS011;19030;49.478;8.986;2022-08-19T02:37:54;17.63;;;14.52;;
32611;SDS011;19030;49.478;8.986;2022-08-19T02:40:23;21.48;;;15.60;;
32611;SDS011;19030;49.478;8.986;2022-08-19T02:42:24;17.75;;;15.25;;
32611;SDS011;19030;49.478;8.986;2022-08-19T02:44:25;18.95;;;15.85;;
32611;SDS011;19030;49.478;8.986;2022-08-19T02:46:31;19.75;;;15.85;;
32611;SDS011;19030;49.478;8.986;2022-08-19T02:48:32;19.98;;;15.75;;
32611;SDS011;19030;49.478;8.986;2022-08-19T02:50:33;19.73;;;16.42;;
32611;SDS011;19030;49.478;8.986;2022-08-19T02:52:36;19.08;;;15.65;;
32611;SDS011;19030;49.478;8.986;2022-08-19T02:54:37;19.75;;;15.93;;
32611;SDS011;19030;49.478;8.986;2022-08-19T02:56:39;18.42;;;16.42;;
32611;SDS011;19030;49.478;8.986;2022-08-19T02:58:41;19.55;;;16.65;;
32611;SDS011;19030;49.478;8.986;2022-08-19T03:00:44;18.48;;;16.30;;
32611;SDS011;19030;49.478;8.986;2022-08-19T03:02:49;19.95;;;16.15;;
32611;SDS011;19030;49.478;8.986;2022-08-19T03:04:50;19.30;;;15.50;;
32611;SDS011;19030;49.478;8.986;2022-08-19T03:06:51;18.67;;;16.20;;
32611;SDS011;19030;49.478;8.986;2022-08-19T03:08:51;20.20;;;16.30;;
32611;SDS011;19030;49.478;8.986;2022-08-19T03:10:53;19.55;;;16.75;;
32611;SDS011;19030;49.478;8.986;2022-08-19T03:12:53;20.88;;;16.85;;
32611;SDS011;19030;49.478;8.986;2022-08-19T03:14:54;20.20;;;16.30;;
32611;SDS011;19030;49.478;8.986;2022-08-19T03:16:54;21.80;;;17.83;;
32611;SDS011;19030;49.478;8.986;2022-08-19T03:18:56;20.75;;;17.40;;
32611;SDS011;19030;49.478;8.986;2022-08-19T03:20:59;23.58;;;17.35;;
32611;SDS011;19030;49.478;8.986;2022-08-19T03:23:00;19.58;;;16.73;;
32611;SDS011;19030;49.478;8.986;2022-08-19T03:25:01;22.75;;;16.98;;
32611;SDS011;19030;49.478;8.986;2022-08-19T03:27:02;20.70;;;17.40;;
32611;SDS011;19030;49.478;8.986;2022-08-19T03:29:05;24.58;;;18.80;;
32611;SDS011;19030;49.478;8.986;2022-08-19T03:31:07;23.73;;;17.75;;
32611;SDS011;19030;49.478;8.986;2022-08-19T03:33:12;23.20;;;18.00;;
32611;SDS011;19030;49.478;8.986;2022-08-19T03:35:13;22.83;;;18.25;;
32611;SDS011;19030;49.478;8.986;2022-08-19T03:37:13;20.70;;;17.08;;
32611;SDS011;19030;49.478;8.986;2022-08-19T03:39:14;21.13;;;17.75;;
32611;SDS011;19030;49.478;8.986;2022-08-19T03:41:17;23.00;;;18.95;;
32611;SDS011;19030;49.478;8.986;2022-08-19T03:43:19;23.17;;;18.77;;
32611;SDS011;19030;49.478;8.986;2022-08-19T03:45:19;21.52;;;17.83;;
32611;SDS011;19030;49.478;8.986;2022-08-19T03:47:20;21.42;;;17.85;;
32611;SDS011;19030;49.478;8.986;2022-08-19T03:49:21;21.67;;;17.35;;
32611;SDS011;19030;49.478;8.986;2022-08-19T03:51:24;21.92;;;17.73;;
32611;SDS011;19030;49.478;8.986;2022-08-19T03:53:31;22.23;;;17.58;;
32611;SDS011;19030;49.478;8.986;2022-08-19T03:55:33;22.33;;;18.25;;
32611;SDS011;19030;49.478;8.986;2022-08-19T03:57:38;20.85;;;16.58;;
32611;SDS011;19030;49.478;8.986;2022-08-19T03:59:39;20.50;;;16.83;;
32611;SDS011;19030;49.478;8.986;2022-08-19T04:01:40;19.67;;;17.58;;
32611;SDS011;19030;49.478;8.986;2022-08-19T04:03:41;21.35;;;17.90;;
32611;SDS011;19030;49.478;8.986;2022-08-19T04:05:41;20.58;;;17.88;;
32611;SDS011;19030;49.478;8.986;2022-08-19T04:07:42;19.42;;;16.35;;
32611;SDS011;19030;49.478;8.986;2022-08-19T04:09:42;24.85;;;18.35;;
32611;SDS011;19030;49.478;8.986;2022-08-19T04:11:44;20.63;;;17.13;;
32611;SDS011;19030;49.478;8.986;2022-08-19T04:13:47;20.60;;;18.05;;
32611;SDS011;19030;49.478;8.986;2022-08-19T04:15:49;22.13;;;18.10;;
32611;SDS011;19030;49.478;8.986;2022-08-19T04:17:49;23.38;;;18.13;;
32611;SDS011;19030;49.478;8.986;2022-08-19T04:19:50;22.48;;;18.13;;
32611;SDS011;19030;49.478;8.986;2022-08-19T04:21:51;22.15;;;18.13;;
32611;SDS011;19030;49.478;8.986;2022-08-19T04:23:54;21.55;;;17.40;;
32611;SDS011;19030;49.478;8.986;2022-08-19T04:25:56;23.38;;;18.65;;
32611;SDS011;19030;49.478;8.986;2022-08-19T04:27:57;22.60;;;18.58;;
32611;SDS011;19030;49.478;8.986;2022-08-19T04:29:57;23.00;;;18.38;;
32611;SDS011;19030;49.478;8.986;2022-08-19T04:31:58;20.15;;;16.35;;
32611;SDS011;19030;49.478;8.986;2022-08-19T04:34:00;21.00;;;16.58;;
32611;SDS011;19030;49.478;8.986;2022-08-19T04:36:02;20.10;;;17.33;;
32611;SDS011;19030;49.478;8.986;2022-08-19T04:38:03;21.45;;;17.60;;
32611;SDS011;19030;49.478;8.986;2022-08-19T04:40:05;22.38;;;17.95;;
32611;SDS011;19030;49.478;8.986;2022-08-19T04:42:25;24.48;;;18.17;;
32611;SDS011;19030;49.478;8.986;2022-08-19T04:44:41;24.13;;;18.15;;
32611;SDS011;19030;49.478;8.986;2022-08-19T04:46:41;21.73;;;17.25;;
32611;SDS011;19030;49.478;8.986;2022-08-19T04:48:42;21.45;;;16.77;;
32611;SDS011;19030;49.478;8.986;2022-08-19T04:50:43;21.02;;;18.00;;
32611;SDS011;19030;49.478;8.986;2022-08-19T04:52:44;21.08;;;16.30;;
32611;SDS011;19030;49.478;8.986;2022-08-19T04:54:44;21.98;;;17.08;;
32611;SDS011;19030;49.478;8.986;2022-08-19T04:56:45;22.85;;;17.33;;
32611;SDS011;19030;49.478;8.986;2022-08-19T04:58:46;21.20;;;17.45;;
32611;SDS011;19030;49.478;8.986;2022-08-19T05:00:47;20.63;;;17.50;;
32611;SDS011;19030;49.478;8.986;2022-08-19T05:02:48;23.77;;;19.08;;
32611;SDS011;19030;49.478;8.986;2022-08-19T05:04:49;21.60;;;17.13;;
32611;SDS011;19030;49.478;8.986;2022-08-19T05:06:49;22.50;;;17.30;;
32611;SDS011;19030;49.478;8.986;2022-08-19T05:08:52;20.90;;;16.52;;
32611;SDS011;19030;49.478;8.986;2022-08-19T05:10:52;22.40;;;18.27;;
32611;SDS011;19030;49.478;8.986;2022-08-19T05:12:53;20.50;;;16.80;;
32611;SDS011;19030;49.478;8.986;2022-08-19T05:14:53;20.02;;;16.63;;
32611;SDS011;19030;49.478;8.986;2022-08-19T05:16:54;22.65;;;17.92;;
32611;SDS011;19030;49.478;8.986;2022-08-19T05:18:55;21.00;;;17.05;;
32611;SDS011;19030;49.478;8.986;2022-08-19T05:21:15;22.27;;;17.15;;
32611;SDS011;19030;49.478;8.986;2022-08-19T05:23:36;20.35;;;16.80;;
32611;SDS011;19030;49.478;8.986;2022-08-19T05:25:38;22.90;;;17.08;;
32611;SDS011;19030;49.478;8.986;2022-08-19T05:27:40;21.83;;;17.10;;
32611;SDS011;19030;49.478;8.986;2022-08-19T05:29:42;20.85;;;16.45;;
32611;SDS011;19030;49.478;8.986;2022-08-19T05:31:42;22.08;;;16.15;;
32611;SDS011;19030;49.478;8.986;2022-08-19T05:33:43;20.08;;;15.65;;
32611;SDS011;19030;49.478;8.986;2022-08-19T05:35:44;19.85;;;16.50;;
32611;SDS011;19030;49.478;8.986;2022-08-19T05:37:46;22.42;;;16.85;;
32611;SDS011;19030;49.478;8.986;2022-08-19T05:39:46;20.00;;;15.38;;
32611;SDS011;19030;49.478;8.986;2022-08-19T05:42:20;20.60;;;16.08;;
32611;SDS011;19030;49.478;8.986;2022-08-19T05:44:14;20.38;;;15.80;;
32611;SDS011;19030;49.478;8.986;2022-08-19T05:46:19;19.85;;;15.73;;
32611;SDS011;19030;49.478;8.986;2022-08-19T05:48:20;19.15;;;16.05;;
32611;SDS011;19030;49.478;8.986;2022-08-19T05:50:21;18.60;;;15.25;;
32611;SDS011;19030;49.478;8.986;2022-08-19T05:52:22;20.13;;;15.82;;
32611;SDS011;19030;49.478;8.986;2022-08-19T05:54:23;20.88;;;15.05;;
32611;SDS011;19030;49.478;8.986;2022-08-19T05:56:24;20.15;;;14.75;;
32611;SDS011;19030;49.478;8.986;2022-08-19T05:58:24;20.40;;;16.55;;
32611;SDS011;19030;49.478;8.986;2022-08-19T06:00:26;20.55;;;16.13;;
32611;SDS011;19030;49.478;8.986;2022-08-19T06:02:26;19.02;;;15.30;;
32611;SDS011;19030;49.478;8.986;2022-08-19T06:04:28;18.25;;;15.48;;
32611;SDS011;19030;49.478;8.986;2022-08-19T06:06:28;20.45;;;16.95;;
32611;SDS011;19030;49.478;8.986;2022-08-19T06:08:29;20.77;;;16.58;;
32611;SDS011;19030;49.478;8.986;2022-08-19T06:10:30;18.95;;;15.43;;
32611;SDS011;19030;49.478;8.986;2022-08-19T06:12:31;19.55;;;16.48;;
32611;SDS011;19030;49.478;8.986;2022-08-19T06:14:34;19.40;;;15.93;;
32611;SDS011;19030;49.478;8.986;2022-08-19T06:16:36;20.65;;;16.63;;
32611;SDS011;19030;49.478;8.986;2022-08-19T06:18:38;17.70;;;15.55;;
32611;SDS011;19030;49.478;8.986;2022-08-19T06:20:39;21.80;;;17.48;;
32611;SDS011;19030;49.478;8.986;2022-08-19T06:22:41;21.70;;;16.90;;
32611;SDS011;19030;49.478;8.986;2022-08-19T06:24:43;21.25;;;16.00;;
32611;SDS011;19030;49.478;8.986;2022-08-19T06:26:45;20.38;;;17.00;;
32611;SDS011;19030;49.478;8.986;2022-08-19T06:28:47;21.90;;;18.23;;
32611;SDS011;19030;49.478;8.986;2022-08-19T06:30:48;20.33;;;16.45;;
32611;SDS011;19030;49.478;8.986;2022-08-19T06:32:49;20.60;;;16.27;;
32611;SDS011;19030;49.478;8.986;2022-08-19T06:34:49;21.20;;;16.77;;
32611;SDS011;19030;49.478;8.986;2022-08-19T06:36:51;22.45;;;16.45;;
32611;SDS011;19030;49.478;8.986;2022-08-19T06:38:52;19.77;;;15.77;;
32611;SDS011;19030;49.478;8.986;2022-08-19T06:41:00;21.75;;;15.75;;
32611;SDS011;19030;49.478;8.986;2022-08-19T06:43:04;19.25;;;15.60;;
32611;SDS011;19030;49.478;8.986;2022-08-19T06:45:05;20.20;;;16.15;;
32611;SDS011;19030;49.478;8.986;2022-08-19T06:47:08;21.20;;;15.93;;
32611;SDS011;19030;49.478;8.986;2022-08-19T06:49:13;19.65;;;15.88;;
32611;SDS011;19030;49.478;8.986;2022-08-19T06:51:15;18.40;;;15.50;;
32611;SDS011;19030;49.478;8.986;2022-08-19T06:53:18;18.50;;;15.52;;
32611;SDS011;19030;49.478;8.986;2022-08-19T06:55:19;19.30;;;15.48;;
32611;SDS011;19030;49.478;8.986;2022-08-19T06:57:19;17.70;;;15.18;;
32611;SDS011;19030;49.478;8.986;2022-08-19T06:59:21;18.50;;;15.30;;
32611;SDS011;19030;49.478;8.986;2022-08-19T07:01:27;18.13;;;15.38;;
32611;SDS011;19030;49.478;8.986;2022-08-19T07:03:32;19.15;;;14.95;;
32611;SDS011;19030;49.478;8.986;2022-08-19T07:05:38;19.27;;;14.73;;
32611;SDS011;19030;49.478;8.986;2022-08-19T07:07:42;16.55;;;13.73;;
32611;SDS011;19030;49.478;8.986;2022-08-19T07:09:44;16.50;;;13.90;;
32611;SDS011;19030;49.478;8.986;2022-08-19T07:11:45;16.63;;;13.80;;
32611;SDS011;19030;49.478;8.986;2022-08-19T07:13:47;17.92;;;13.68;;
32611;SDS011;19030;49.478;8.986;2022-08-19T07:15:49;16.33;;;12.77;;
32611;SDS011;19030;49.478;8.986;2022-08-19T07:17:50;15.02;;;12.55;;
32611;SDS011;19030;49.478;8.986;2022-08-19T07:19:51;16.42;;;12.00;;
32611;SDS011;19030;49.478;8.986;2022-08-19T07:21:52;15.40;;;12.18;;
32611;SDS011;19030;49.478;8.986;2022-08-19T07:23:54;14.77;;;11.85;;
32611;SDS011;19030;49.478;8.986;2022-08-19T07:25:56;19.88;;;12.48;;
32611;SDS011;19030;49.478;8.986;2022-08-19T07:27:57;20.67;;;12.88;;
32611;SDS011;19030;49.478;8.986;2022-08-19T07:29:57;15.73;;;11.43;;
32611;SDS011;19030;49.478;8.986;2022-08-19T07:31:58;15.23;;;11.30;;
32611;SDS011;19030;49.478;8.986;2022-08-19T07:33:59;15.20;;;11.38;;
32611;SDS011;19030;49.478;8.986;2022-08-19T07:36:00;14.98;;;10.95;;
32611;SDS011;19030;49.478;8.986;2022-08-19T07:38:01;16.00;;;11.10;;
32611;SDS011;19030;49.478;8.986;2022-08-19T07:40:03;14.18;;;10.85;;
32611;SDS011;19030;49.478;8.986;2022-08-19T07:42:08;12.95;;;11.20;;
32611;SDS011;19030;49.478;8.986;2022-08-19T07:44:14;14.75;;;11.40;;
32611;SDS011;19030;49.478;8.986;2022-08-19T07:46:15;16.30;;;11.90;;
32611;SDS011;19030;49.478;8.986;2022-08-19T07:48:16;17.35;;;11.48;;
32611;SDS011;19030;49.478;8.986;2022-08-19T07:50:17;15.13;;;10.85;;
32611;SDS011;19030;49.478;8.986;2022-08-19T07:52:19;15.55;;;12.07;;
32611;SDS011;19030;49.478;8.986;2022-08-19T07:54:21;14.88;;;11.20;;
32611;SDS011;19030;49.478;8.986;2022-08-19T07:56:24;14.50;;;10.55;;
32611;SDS011;19030;49.478;8.986;2022-08-19T07:58:24;15.27;;;10.80;;
32611;SDS011;19030;49.478;8.986;2022-08-19T08:00:25;17.25;;;12.77;;
32611;SDS011;19030;49.478;8.986;2022-08-19T08:02:26;14.43;;;10.65;;
32611;SDS011;19030;49.478;8.986;2022-08-19T08:04:27;14.98;;;11.13;;
32611;SDS011;19030;49.478;8.986;2022-08-19T08:06:49;14.57;;;10.82;;
32611;SDS011;19030;49.478;8.986;2022-08-19T08:09:09;15.27;;;11.15;;
32611;SDS011;19030;49.478;8.986;2022-08-19T08:11:18;14.88;;;11.85;;
32611;SDS011;19030;49.478;8.986;2022-08-19T08:13:20;17.08;;;12.75;;
32611;SDS011;19030;49.478;8.986;2022-08-19T08:15:20;15.13;;;11.18;;
32611;SDS011;19030;49.478;8.986;2022-08-19T08:17:22;15.25;;;10.40;;
32611;SDS011;19030;49.478;8.986;2022-08-19T08:19:25;16.20;;;10.50;;
32611;SDS011;19030;49.478;8.986;2022-08-19T08:21:27;13.00;;;10.35;;
32611;SDS011;19030;49.478;8.986;2022-08-19T08:23:28;16.08;;;10.13;;
32611;SDS011;19030;49.478;8.986;2022-08-19T08:25:30;12.95;;;9.50;;
32611;SDS011;19030;49.478;8.986;2022-08-19T08:27:31;12.60;;;9.57;;
32611;SDS011;19030;49.478;8.986;2022-08-19T08:29:34;14.07;;;9.80;;
32611;SDS011;19030;49.478;8.986;2022-08-19T08:31:36;11.98;;;8.98;;
32611;SDS011;19030;49.478;8.986;2022-08-19T08:33:37;13.88;;;9.10;;
32611;SDS011;19030;49.478;8.986;2022-08-19T08:35:38;14.30;;;8.73;;
32611;SDS011;19030;49.478;8.986;2022-08-19T08:37:42;14.65;;;8.70;;
32611;SDS011;19030;49.478;8.986;2022-08-19T08:39:44;14.75;;;8.52;;
32611;SDS011;19030;49.478;8.986;2022-08-19T08:41:51;12.80;;;8.40;;
32611;SDS011;19030;49.478;8.986;2022-08-19T08:43:56;12.93;;;8.85;;
32611;SDS011;19030;49.478;8.986;2022-08-19T08:46:01;12.02;;;8.07;;
32611;SDS011;19030;49.478;8.986;2022-08-19T08:48:20;14.32;;;8.45;;
32611;SDS011;19030;49.478;8.986;2022-08-19T08:50:38;9.65;;;7.40;;
32611;SDS011;19030;49.478;8.986;2022-08-19T08:52:44;11.10;;;7.82;;
32611;SDS011;19030;49.478;8.986;2022-08-19T08:54:47;10.02;;;7.07;;
32611;SDS011;19030;49.478;8.986;2022-08-19T08:56:50;12.90;;;8.88;;
32611;SDS011;19030;49.478;8.986;2022-08-19T08:58:58;12.55;;;8.00;;
32611;SDS011;19030;49.478;8.986;2022-08-19T09:01:01;13.27;;;8.95;;
32611;SDS011;19030;49.478;8.986;2022-08-19T09:03:02;11.05;;;7.18;;
32611;SDS011;19030;49.478;8.986;2022-08-19T09:05:06;10.27;;;6.82;;
32611;SDS011;19030;49.478;8.986;2022-08-19T09:09:51;10.00;;;6.50;;
32611;SDS011;19030;49.478;8.986;2022-08-19T09:11:58;8.57;;;6.18;;
32611;SDS011;19030;49.478;8.986;2022-08-19T09:14:18;10.63;;;7.15;;
32611;SDS011;19030;49.478;8.986;2022-08-19T09:16:45;11.70;;;7.35;;
32611;SDS011;19030;49.478;8.986;2022-08-19T09:18:53;10.60;;;6.13;;
32611;SDS011;19030;49.478;8.986;2022-08-19T09:20:57;12.75;;;7.18;;
32611;SDS011;19030;49.478;8.986;2022-08-19T09:22:58;10.77;;;7.63;;
32611;SDS011;19030;49.478;8.986;2022-08-19T09:24:59;12.77;;;8.20;;
32611;SDS011;19030;49.478;8.986;2022-08-19T09:27:00;12.52;;;8.20;;
32611;SDS011;19030;49.478;8.986;2022-08-19T09:29:01;10.90;;;7.57;;
32611;SDS011;19030;49.478;8.986;2022-08-19T09:31:04;13.48;;;7.80;;
32611;SDS011;19030;49.478;8.986;2022-08-19T09:33:05;8.93;;;6.10;;
32611;SDS011;19030;49.478;8.986;2022-08-19T09:35:07;20.80;;;7.18;;
32611;SDS011;19030;49.478;8.986;2022-08-19T09:37:08;11.40;;;6.80;;
32611;SDS011;19030;49.478;8.986;2022-08-19T09:39:08;10.25;;;6.25;;
32611;SDS011;19030;49.478;8.986;2022-08-19T09:41:10;10.57;;;7.15;;
32611;SDS011;19030;49.478;8.986;2022-08-19T09:43:16;10.38;;;6.40;;
32611;SDS011;19030;49.478;8.986;2022-08-19T09:45:17;10.55;;;5.97;;
32611;SDS011;19030;49.478;8.986;2022-08-19T09:47:21;7.72;;;4.80;;
32611;SDS011;19030;49.478;8.986;2022-08-19T09:49:22;8.13;;;4.55;;
32611;SDS011;19030;49.478;8.986;2022-08-19T09:51:23;8.13;;;5.03;;
32611;SDS011;19030;49.478;8.986;2022-08-19T09:53:28;10.70;;;5.22;;
32611;SDS011;19030;49.478;8.986;2022-08-19T09:55:28;9.60;;;5.20;;
32611;SDS011;19030;49.478;8.986;2022-08-19T09:57:29;7.53;;;4.95;;
32611;SDS011;19030;49.478;8.986;2022-08-19T09:59:30;8.10;;;5.43;;
32611;SDS011;19030;49.478;8.986;2022-08-19T10:01:31;10.52;;;5.32;;
32611;SDS011;19030;49.478;8.986;2022-08-19T10:03:32;9.00;;;5.22;;
32611;SDS011;19030;49.478;8.986;2022-08-19T10:05:34;7.38;;;4.57;;
32611;SDS011;19030;49.478;8.986;2022-08-19T10:07:50;5.67;;;4.00;;
32611;SDS011;19030;49.478;8.986;2022-08-19T10:09:51;7.65;;;4.50;;
32611;SDS011;19030;49.478;8.986;2022-08-19T10:11:51;8.88;;;4.70;;
32611;SDS011;19030;49.478;8.986;2022-08-19T10:13:52;6.20;;;4.30;;
32611;SDS011;19030;49.478;8.986;2022-08-19T10:15:54;8.68;;;4.47;;
32611;SDS011;19030;49.478;8.986;2022-08-19T10:17:57;7.38;;;4.05;;
32611;SDS011;19030;49.478;8.986;2022-08-19T10:19:59;6.63;;;3.80;;
32611;SDS011;19030;49.478;8.986;2022-08-19T10:22:01;7.90;;;4.40;;
32611;SDS011;19030;49.478;8.986;2022-08-19T10:24:04;8.73;;;5.20;;
32611;SDS011;19030;49.478;8.986;2022-08-19T10:26:06;7.63;;;4.40;;
32611;SDS011;19030;49.478;8.986;2022-08-19T10:28:07;8.50;;;4.43;;
32611;SDS011;19030;49.478;8.986;2022-08-19T10:30:08;8.65;;;4.43;;
32611;SDS011;19030;49.478;8.986;2022-08-19T10:32:09;7.10;;;4.28;;
32611;SDS011;19030;49.478;8.986;2022-08-19T10:34:10;7.88;;;4.90;;
32611;SDS011;19030;49.478;8.986;2022-08-19T10:36:12;9.20;;;4.80;;
32611;SDS011;19030;49.478;8.986;2022-08-19T10:38:17;6.82;;;4.40;;
32611;SDS011;19030;49.478;8.986;2022-08-19T10:40:18;6.38;;;4.25;;
32611;SDS011;19030;49.478;8.986;2022-08-19T10:42:18;10.40;;;4.90;;
32611;SDS011;19030;49.478;8.986;2022-08-19T10:44:19;7.88;;;4.80;;
32611;SDS011;19030;49.478;8.986;2022-08-19T10:46:22;9.80;;;5.38;;
32611;SDS011;19030;49.478;8.986;2022-08-19T10:48:23;6.78;;;4.47;;
32611;SDS011;19030;49.478;8.986;2022-08-19T10:50:24;7.15;;;4.47;;
32611;SDS011;19030;49.478;8.986;2022-08-19T10:52:44;9.45;;;4.53;;
32611;SDS011;19030;49.478;8.986;2022-08-19T10:54:46;7.63;;;4.45;;
32611;SDS011;19030;49.478;8.986;2022-08-19T10:57:10;10.23;;;4.70;;
32611;SDS011;19030;49.478;8.986;2022-08-19T10:59:10;10.20;;;4.95;;
32611;SDS011;19030;49.478;8.986;2022-08-19T11:01:12;8.20;;;4.85;;
32611;SDS011;19030;49.478;8.986;2022-08-19T11:03:13;9.02;;;5.10;;
32611;SDS011;19030;49.478;8.986;2022-08-19T11:05:14;11.40;;;5.50;;
32611;SDS011;19030;49.478;8.986;2022-08-19T11:07:15;9.35;;;5.15;;
32611;SDS011;19030;49.478;8.986;2022-08-19T11:09:18;9.27;;;5.00;;
32611;SDS011;19030;49.478;8.986;2022-08-19T11:11:27;8.80;;;4.97;;
32611;SDS011;19030;49.478;8.986;2022-08-19T11:13:29;6.78;;;4.53;;
32611;SDS011;19030;49.478;8.986;2022-08-19T11:15:31;8.10;;;4.90;;
32611;SDS011;19030;49.478;8.986;2022-08-19T11:17:33;6.70;;;4.60;;
32611;SDS011;19030;49.478;8.986;2022-08-19T11:19:34;6.45;;;4.03;;
32611;SDS011;19030;49.478;8.986;2022-08-19T11:21:39;9.02;;;4.68;;
32611;SDS011;19030;49.478;8.986;2022-08-19T11:23:41;11.38;;;4.68;;
32611;SDS011;19030;49.478;8.986;2022-08-19T11:25:43;7.93;;;4.90;;
32611;SDS011;19030;49.478;8.986;2022-08-19T11:27:45;6.38;;;4.53;;
32611;SDS011;19030;49.478;8.986;2022-08-19T11:29:46;6.95;;;4.38;;
32611;SDS011;19030;49.478;8.986;2022-08-19T11:31:47;7.25;;;4.57;;
32611;SDS011;19030;49.478;8.986;2022-08-19T11:33:49;8.80;;;4.65;;
32611;SDS011;19030;49.478;8.986;2022-08-19T11:35:53;8.25;;;4.57;;
32611;SDS011;19030;49.478;8.986;2022-08-19T11:37:54;7.32;;;4.57;;
32611;SDS011;19030;49.478;8.986;2022-08-19T11:39:56;7.22;;;4.55;;
32611;SDS011;19030;49.478;8.986;2022-08-19T11:41:59;7.35;;;4.32;;
32611;SDS011;19030;49.478;8.986;2022-08-19T11:44:03;7.22;;;4.60;;
32611;SDS011;19030;49.478;8.986;2022-08-19T11:46:08;8.02;;;4.32;;
32611;SDS011;19030;49.478;8.986;2022-08-19T11:48:10;8.20;;;4.85;;
32611;SDS011;19030;49.478;8.986;2022-08-19T11:50:11;9.15;;;5.60;;
32611;SDS011;19030;49.478;8.986;2022-08-19T11:52:11;8.77;;;5.45;;
32611;SDS011;19030;49.478;8.986;2022-08-19T11:54:13;9.65;;;4.90;;
32611;SDS011;19030;49.478;8.986;2022-08-19T11:56:16;8.10;;;4.97;;
32611;SDS011;19030;49.478;8.986;2022-08-19T11:58:18;7.57;;;5.25;;
32611;SDS011;19030;49.478;8.986;2022-08-19T12:00:19;7.13;;;4.70;;
32611;SDS011;19030;49.478;8.986;2022-08-19T12:02:19;7.65;;;5.30;;
32611;SDS011;19030;49.478;8.986;2022-08-19T12:04:21;9.27;;;5.45;;
32611;SDS011;19030;49.478;8.986;2022-08-19T12:06:24;8.43;;;5.32;;